Weather History for KFBR - May, 2014

Change the Weather History Date:

Sunday, May 4, 2014

  Actual Average (KEVW) Record (KEVW)
Temperature  
Mean Temperature 58 °F 45 °F  
Max Temperature 70 °F 57 °F 75 °F (2000)
Min Temperature 47 °F 34 °F 24 °F (1999)
Degree Days  
Heating Degree Days 6 20  
Month to date heating degree days 82  
Since 1 July heating degree days 7919  
Cooling Degree Days 0 0  
Month to date cooling degree days 0  
Year to date cooling degree days 0  
Growing Degree Days 8 (Base 50)    
Moisture  
Dew Point 15 °F    
Average Humidity 19    
Maximum Humidity 36    
Minimum Humidity 11    
Precipitation  
Precipitation 0.00 in 0.06 in 0.45 in (2006)
Month to date precipitation 0.23  
Year to date precipitation 3.39  
Sea Level Pressure  
Sea Level Pressure 29.97 in    
Wind  
Wind Speed 12 mph (West)    
Max Wind Speed 30 mph    
Max Gust Speed 43 mph    
Visibility 10 miles    
Events      
T = Trace of Precipitation, MM = Missing Value Source: NWS Daily Summary

Daily Weather History Graph

Daily Weather History Graph

Search for Another Location

Airport or City:

Trip Planner

Search our weather history database for the weather conditions in past years. The results will help you decide how hot, cold, wet, or windy it might be!

Date:

Astronomy

May. 04, 2014 Rise Set
Actual Time 6:14 AM MDT 8:22 PM MDT
Civil Twilight 5:44 AM MDT 8:52 PM MDT
Nautical Twilight 5:07 AM MDT 9:30 PM MDT
Astronomical Twilight 4:26 AM MDT 10:11 PM MDT
Moon 10:42 AM MDT (5/4) 12:30 AM MDT (5/4)
Length of Visible Light 15h 08m
Length of Day
14h 07m
Waxing Crescent, 28% of the Moon is Illuminated
May 4
Waxing Crescent
May 6
First Quarter
May 14
Full
May 21
Last Quarter
May 28
New

Hourly Weather History & Observations

Time (MDT) Temp. Dew Point Humidity Pressure Visibility Wind Dir Wind Speed Gust Speed Precip Events Conditions
12:15 AM 48.0 °F 21.9 °F 36% 29.98 in 10.0 mi West 8.1 mph - N/A   Clear
12:35 AM 50.0 °F 21.2 °F 32% 29.98 in 10.0 mi West 8.1 mph - N/A   Clear
12:55 AM 49.6 °F 20.7 °F 32% 29.98 in 10.0 mi West 8.1 mph - N/A   Clear
1:15 AM 49.3 °F 19.8 °F 31% 29.97 in 10.0 mi West 9.2 mph - N/A   Clear
1:35 AM 49.5 °F 19.4 °F 31% 29.96 in 10.0 mi West 9.2 mph - N/A   Clear
1:55 AM 50.7 °F 18.1 °F 28% 29.96 in 10.0 mi West 10.4 mph - N/A   Clear
2:15 AM 49.1 °F 18.0 °F 29% 29.96 in 10.0 mi West 9.2 mph - N/A   Clear
2:35 AM 49.1 °F 17.2 °F 28% 29.96 in 10.0 mi West 9.2 mph - N/A   Clear
2:55 AM 48.0 °F 16.9 °F 29% 29.96 in 10.0 mi West 9.2 mph - N/A   Clear
3:15 AM 48.4 °F 16.3 °F 28% 29.95 in 10.0 mi WSW 8.1 mph - N/A   Clear
3:35 AM 49.1 °F 15.1 °F 26% 29.95 in 10.0 mi WSW 9.2 mph - N/A   Clear
3:55 AM 47.8 °F 14.7 °F 27% 29.95 in 10.0 mi WSW 8.1 mph - N/A   Clear
4:15 AM 49.5 °F 14.2 °F 24% 29.95 in 10.0 mi West 8.1 mph - N/A   Clear
4:35 AM 49.1 °F 13.8 °F 24% 29.96 in 10.0 mi West 9.2 mph - N/A   Clear
4:55 AM 49.1 °F 13.8 °F 24% 29.96 in 10.0 mi WNW 4.6 mph - N/A   Clear
5:15 AM 49.1 °F 13.5 °F 24% 29.96 in 10.0 mi West 5.8 mph - N/A   Clear
5:35 AM 48.4 °F 13.3 °F 24% 29.96 in 10.0 mi West 8.1 mph - N/A   Clear
5:55 AM 48.7 °F 12.9 °F 24% 29.96 in 10.0 mi WSW 8.1 mph - N/A   Clear
6:15 AM 49.6 °F 12.0 °F 22% 29.96 in 10.0 mi WSW 9.2 mph - N/A   Clear
6:35 AM 48.6 °F 12.4 °F 23% 29.96 in 10.0 mi WSW 8.1 mph - N/A   Clear
6:55 AM 47.7 °F 12.9 °F 25% 29.97 in 10.0 mi WSW 8.1 mph - N/A   Clear
7:15 AM 48.7 °F 13.6 °F 25% 29.97 in 10.0 mi WSW 9.2 mph - N/A   Clear
7:35 AM 51.4 °F 13.6 °F 22% 29.96 in 10.0 mi West 6.9 mph - N/A   Clear
7:55 AM 53.1 °F 14.0 °F 21% 29.96 in 10.0 mi West 5.8 mph - N/A   Clear
8:15 AM 54.7 °F 15.6 °F 21% 29.96 in 10.0 mi Calm Calm - N/A   Clear
8:35 AM 56.3 °F 17.1 °F 22% 29.97 in 10.0 mi Calm Calm - N/A   Clear
8:55 AM 59.7 °F 17.1 °F 19% 29.97 in 10.0 mi SW 4.6 mph - N/A   Clear
9:15 AM 62.4 °F 17.4 °F 18% 29.98 in 10.0 mi WNW 10.4 mph - N/A   Clear
9:35 AM 65.7 °F 13.1 °F 13% 29.97 in 10.0 mi WSW 20.7 mph 27.6 mph N/A   Clear
10:00 AM 67.1 °F 12.6 °F 12% 29.97 in 10.0 mi West 21.9 mph 31.1 mph N/A   Clear
10:15 AM 67.6 °F 12.0 °F 12% 29.97 in 10.0 mi West 26.5 mph 34.5 mph N/A   Clear
10:35 AM 67.6 °F 12.2 °F 12% 29.97 in 10.0 mi West 25.3 mph 35.7 mph N/A   Clear
10:55 AM 68.7 °F 12.2 °F 11% 29.97 in 10.0 mi West 25.3 mph 35.7 mph N/A   Clear
11:15 AM 69.3 °F 13.3 °F 12% 29.98 in 10.0 mi WSW 25.3 mph 32.2 mph N/A   Clear
11:35 AM 69.4 °F 13.5 °F 12% 29.98 in 10.0 mi West 28.8 mph 34.5 mph N/A   Clear
11:55 AM 69.6 °F 12.9 °F 11% 29.98 in 10.0 mi WNW 26.5 mph 40.3 mph N/A   Clear
12:15 PM 69.3 °F 13.5 °F 12% 29.98 in 10.0 mi West 20.7 mph 33.4 mph N/A   Clear
12:35 PM 70.3 °F 14.0 °F 12% 29.98 in 10.0 mi West 25.3 mph 36.8 mph N/A   Clear
12:55 PM 70.3 °F 13.5 °F 11% 29.98 in 10.0 mi West 26.5 mph 41.4 mph N/A   Clear
1:15 PM 70.3 °F 13.6 °F 11% 29.98 in 10.0 mi West 29.9 mph 39.1 mph N/A   Clear
1:35 PM 70.9 °F 13.8 °F 11% 29.98 in 10.0 mi West 27.6 mph 42.6 mph N/A   Clear
1:55 PM 70.7 °F 14.5 °F 12% 29.98 in 10.0 mi West 29.9 mph 38.0 mph N/A   Clear
2:15 PM 70.3 °F 14.2 °F 12% 29.97 in 10.0 mi West 23.0 mph 39.1 mph N/A   Clear
2:35 PM 69.8 °F 13.1 °F 11% 29.98 in 10.0 mi West 25.3 mph 38.0 mph N/A   Clear
2:55 PM 69.6 °F 13.8 °F 12% 29.98 in 10.0 mi West 25.3 mph 35.7 mph N/A   Clear
3:15 PM 69.3 °F 14.4 °F 12% 29.98 in 10.0 mi West 25.3 mph 34.5 mph N/A   Clear
3:35 PM 69.3 °F 14.9 °F 12% 29.98 in 10.0 mi West 19.6 mph 34.5 mph N/A   Clear
3:55 PM 69.8 °F 16.3 °F 13% 29.97 in 10.0 mi West 21.9 mph 27.6 mph N/A   Clear
4:15 PM 68.2 °F 16.0 °F 14% 29.97 in 10.0 mi WNW 21.9 mph 28.8 mph N/A   Clear
4:35 PM 67.3 °F 16.5 °F 14% 29.96 in 10.0 mi WNW 24.2 mph 28.8 mph N/A   Clear
4:55 PM 67.3 °F 16.7 °F 14% 29.96 in 10.0 mi WNW 20.7 mph 29.9 mph N/A   Clear
5:15 PM 67.1 °F 16.9 °F 15% 29.96 in 10.0 mi West 17.3 mph 25.3 mph N/A   Clear
5:35 PM 66.6 °F 16.7 °F 15% 29.96 in 10.0 mi West 17.3 mph 23.0 mph N/A   Clear
5:55 PM 66.9 °F 16.9 °F 15% 29.96 in 10.0 mi West 18.4 mph 26.5 mph N/A   Clear
6:15 PM 66.9 °F 16.2 °F 14% 29.96 in 10.0 mi West 19.6 mph 27.6 mph N/A   Clear
6:35 PM 66.7 °F 15.4 °F 14% 29.96 in 10.0 mi WNW 13.8 mph 24.2 mph N/A   Clear
6:55 PM 66.2 °F 15.4 °F 14% 29.96 in 10.0 mi West 17.3 mph 25.3 mph N/A   Clear
7:15 PM 66.2 °F 15.6 °F 14% 29.96 in 10.0 mi WNW 16.1 mph 23.0 mph N/A   Clear
7:35 PM 64.6 °F 16.0 °F 15% 29.96 in 10.0 mi WNW 13.8 mph 19.6 mph N/A   Clear
7:55 PM 62.1 °F 13.5 °F 15% 29.96 in 10.0 mi WNW 13.8 mph - N/A   Clear
8:15 PM 59.2 °F 13.1 °F 16% 29.98 in 10.0 mi West 10.4 mph - N/A   Clear
8:35 PM 56.8 °F 13.6 °F 18% 29.98 in 10.0 mi West 8.1 mph - N/A   Clear
8:55 PM 54.5 °F 13.8 °F 20% 29.98 in 10.0 mi West 8.1 mph - N/A   Clear
9:15 PM 53.1 °F 14.0 °F 21% 29.98 in 10.0 mi West 8.1 mph - N/A   Clear
9:35 PM 52.2 °F 14.0 °F 22% 29.99 in 10.0 mi WSW 6.9 mph - N/A   Clear
9:55 PM 48.6 °F 13.6 °F 25% 30.00 in 10.0 mi SSW 5.8 mph - N/A   Clear
10:15 PM 49.8 °F 14.5 °F 25% 30.00 in 10.0 mi SSW 5.8 mph - N/A   Clear
10:35 PM 50.2 °F 14.7 °F 24% 30.00 in 10.0 mi SSW 4.6 mph - N/A   Clear
10:55 PM 49.6 °F 14.2 °F 24% 30.00 in 10.0 mi SSW 4.6 mph - N/A   Clear
11:15 PM 48.9 °F 14.7 °F 26% 30.00 in 10.0 mi SW 9.2 mph - N/A   Clear
11:35 PM 48.9 °F 14.9 °F 26% 29.99 in 10.0 mi SW 9.2 mph - N/A   Clear
11:55 PM 47.8 °F 14.9 °F 27% 29.98 in 10.0 mi SSW 12.7 mph - N/A   Clear